Time;durP1;ratioP1;P1;durP2;ratioP2;P2;SDS_P1;SDS_P2;PMS_P1;PMS_P2;Temp;Humidity;BMP_temperature;BMP_pressure;BME280_temperature;BME280_humidity;BME280_pressure;Samples;Min_cycle;Max_cycle;Signal;HPM_P1;HPM_P2
2022/09/12 00:01:22;;;;;;;10.40;10.10;;;13.50;99.90;;;;;;5104998;28;20245;-80
2022/09/12 00:03:52;;;;;;;10.40;10.10;;;13.50;99.90;;;;;;5109263;28;20229;-80
2022/09/12 00:06:23;;;;;;;10.53;10.23;;;13.50;99.90;;;;;;5102639;28;20228;-80
2022/09/12 00:08:51;;;;;;;10.40;10.10;;;13.50;99.90;;;;;;5103470;28;20225;-80
2022/09/12 00:11:19;;;;;;;10.33;10.03;;;13.40;99.90;;;;;;5101860;28;20240;-79
2022/09/12 00:13:49;;;;;;;10.40;10.10;;;13.40;99.90;;;;;;5101042;28;20243;-80
2022/09/12 00:16:25;;;;;;;10.27;9.97;;;13.40;99.90;;;;;;5099528;28;20241;-80
2022/09/12 00:18:52;;;;;;;10.30;10.00;;;13.40;99.90;;;;;;5100748;28;20228;-80
2022/09/12 00:21:22;;;;;;;10.50;10.20;;;13.40;99.90;;;;;;5100923;28;20240;-81
2022/09/12 00:23:50;;;;;;;10.23;9.93;;;13.40;99.90;;;;;;5108917;28;20258;-80
2022/09/12 00:26:19;;;;;;;10.30;10.00;;;13.40;99.90;;;;;;5100872;28;20229;-80
2022/09/12 00:28:48;;;;;;;10.33;10.03;;;13.30;99.90;;;;;;5100810;28;20230;-80
2022/09/12 00:31:21;;;;;;;10.20;9.90;;;13.30;99.90;;;;;;5100456;28;20225;-80
2022/09/12 00:33:48;;;;;;;10.10;9.80;;;13.30;99.90;;;;;;5099288;28;20285;-80
2022/09/12 00:36:19;;;;;;;10.40;10.10;;;13.30;99.90;;;;;;5098416;28;20232;-80
2022/09/12 00:38:48;;;;;;;10.30;10.00;;;13.30;99.90;;;;;;5100039;28;20291;-79
2022/09/12 00:41:19;;;;;;;10.03;9.73;;;13.30;99.90;;;;;;5099805;28;20226;-79
2022/09/12 00:43:48;;;;;;;10.30;10.00;;;13.20;99.90;;;;;;5099275;28;20316;-80
2022/09/12 00:46:37;;;;;;;10.40;10.10;;;13.20;99.90;;;;;;5098843;28;20233;-80
2022/09/12 00:49:12;;;;;;;10.50;10.20;;;13.20;99.90;;;;;;5100283;28;20233;-80
2022/09/12 00:51:44;;;;;;;10.70;10.40;;;13.20;99.90;;;;;;5099968;28;20217;-79
2022/09/12 00:54:17;;;;;;;10.60;10.30;;;13.10;99.90;;;;;;5099879;28;20218;-80
2022/09/12 00:56:48;;;;;;;10.57;10.27;;;13.10;99.90;;;;;;5098119;28;20236;-80
2022/09/12 00:59:22;;;;;;;10.40;10.10;;;13.10;99.90;;;;;;5099392;28;20647;-80
2022/09/12 01:01:54;;;;;;;10.60;10.30;;;13.00;99.90;;;;;;5099500;28;20332;-81
2022/09/12 01:04:24;;;;;;;10.67;10.37;;;13.00;99.90;;;;;;5099305;28;20220;-80
2022/09/12 01:06:54;;;;;;;10.53;10.23;;;13.00;99.90;;;;;;5100171;28;20325;-80
2022/09/12 01:09:24;;;;;;;10.50;10.20;;;13.00;99.90;;;;;;5103352;28;20246;-80
2022/09/12 01:11:53;;;;;;;10.53;10.23;;;12.90;99.90;;;;;;5102786;28;20643;-80
2022/09/12 01:14:22;;;;;;;10.57;10.27;;;12.90;99.90;;;;;;5103389;28;20221;-80
2022/09/12 01:16:52;;;;;;;10.50;10.20;;;12.90;99.90;;;;;;5102853;28;20297;-80
2022/09/12 01:19:57;;;;;;;10.27;9.97;;;12.90;99.90;;;;;;5102911;28;20244;-80
2022/09/12 01:22:54;;;;;;;10.57;10.27;;;12.80;99.90;;;;;;5103099;28;20230;-80
2022/09/12 01:25:29;;;;;;;10.50;10.20;;;12.80;99.90;;;;;;5101956;28;20289;-80
2022/09/12 01:28:22;;;;;;;10.50;10.20;;;12.80;99.90;;;;;;5102994;28;20228;-81
2022/09/12 01:30:56;;;;;;;10.57;10.27;;;12.70;99.90;;;;;;5102681;28;20234;-80
2022/09/12 01:33:43;;;;;;;10.33;10.03;;;12.60;99.90;;;;;;5103123;28;20244;-80
2022/09/12 01:36:34;;;;;;;10.47;10.17;;;12.60;99.90;;;;;;5101203;28;20240;-80
2022/09/12 01:39:05;;;;;;;10.50;10.20;;;12.50;99.90;;;;;;5102187;28;20301;-79
2022/09/12 01:41:45;;;;;;;10.50;10.20;;;12.40;99.90;;;;;;5101938;28;20222;-79
2022/09/12 01:44:24;;;;;;;10.50;10.20;;;12.50;99.90;;;;;;5102579;28;20221;-80
2022/09/12 01:47:04;;;;;;;10.40;10.10;;;12.40;99.90;;;;;;5105321;28;20244;-80
2022/09/12 01:49:39;;;;;;;10.50;10.20;;;12.40;99.90;;;;;;5102711;28;20316;-80
2022/09/12 01:52:17;;;;;;;10.60;10.30;;;12.40;99.90;;;;;;5102630;28;20296;-81
2022/09/12 01:54:50;;;;;;;10.43;10.13;;;12.40;99.90;;;;;;5102054;28;20238;-80
2022/09/12 01:57:27;;;;;;;10.50;10.20;;;12.30;99.90;;;;;;5102553;28;20244;-79
2022/09/12 02:00:01;;;;;;;10.30;10.00;;;12.30;99.90;;;;;;5103731;28;20300;-81
2022/09/12 02:02:36;;;;;;;10.50;10.20;;;12.20;99.90;;;;;;5119283;27;20259;-79
2022/09/12 02:05:10;;;;;;;10.40;10.10;;;12.20;99.90;;;;;;5121736;27;20240;-80
2022/09/12 02:07:43;;;;;;;10.30;10.00;;;12.20;99.90;;;;;;5121367;27;20249;-80
2022/09/12 02:10:17;;;;;;;10.17;9.87;;;12.20;99.90;;;;;;5121937;27;20224;-80
2022/09/12 02:12:49;;;;;;;10.20;9.90;;;12.20;99.90;;;;;;5121581;27;20285;-81
2022/09/12 02:15:21;;;;;;;10.37;10.07;;;12.10;99.90;;;;;;5120092;27;20284;-79
2022/09/12 02:17:51;;;;;;;10.17;9.87;;;12.10;99.90;;;;;;5117813;28;20321;-80
2022/09/12 02:20:26;;;;;;;10.50;10.20;;;12.10;99.90;;;;;;5117106;28;20249;-79
2022/09/12 02:22:56;;;;;;;10.50;10.20;;;12.00;99.90;;;;;;5117521;28;20234;-79
2022/09/12 02:25:26;;;;;;;10.43;10.13;;;12.00;99.90;;;;;;5117998;28;20235;-81
2022/09/12 02:27:59;;;;;;;10.30;10.00;;;12.00;99.90;;;;;;5120893;27;20284;-80
2022/09/12 02:30:30;;;;;;;10.40;10.10;;;11.90;99.90;;;;;;5121536;27;20213;-79
2022/09/12 02:33:12;;;;;;;10.40;10.10;;;11.90;99.90;;;;;;5121018;27;20223;-79
2022/09/12 02:35:48;;;;;;;10.20;9.90;;;11.80;99.90;;;;;;5114559;28;20248;-79
2022/09/12 02:38:26;;;;;;;10.20;9.90;;;11.80;99.90;;;;;;5117397;28;20213;-79
2022/09/12 02:40:54;;;;;;;10.60;10.30;;;11.80;99.90;;;;;;5112207;28;20221;-79
2022/09/12 02:43:21;;;;;;;10.40;10.10;;;11.80;99.90;;;;;;5110956;28;20225;-80
2022/09/12 02:45:49;;;;;;;10.40;10.10;;;11.80;99.90;;;;;;5109359;28;20239;-79
2022/09/12 02:48:27;;;;;;;10.63;10.33;;;11.80;99.90;;;;;;5107369;28;20229;-79
2022/09/12 02:50:55;;;;;;;10.33;10.03;;;11.70;99.90;;;;;;5107358;28;20218;-79
2022/09/12 02:53:25;;;;;;;10.60;10.30;;;11.70;99.90;;;;;;5107221;28;20240;-80
2022/09/12 02:55:53;;;;;;;10.47;10.17;;;11.70;99.90;;;;;;5104120;28;20241;-80
2022/09/12 02:58:26;;;;;;;10.70;10.40;;;11.70;99.90;;;;;;5103728;28;20317;-80
2022/09/12 03:01:06;;;;;;;10.70;10.40;;;11.70;99.90;;;;;;5103175;28;20229;-79
2022/09/12 03:04:00;;;;;;;10.40;10.10;;;11.60;99.90;;;;;;5103768;28;20233;-79
2022/09/12 03:06:40;;;;;;;10.50;10.20;;;11.60;99.90;;;;;;5102354;28;20264;-80
2022/09/12 03:09:16;;;;;;;10.30;10.00;;;11.60;99.90;;;;;;5103122;28;20234;-80
2022/09/12 03:12:01;;;;;;;10.17;9.87;;;11.50;99.90;;;;;;5103798;28;20235;-79
2022/09/12 03:14:49;;;;;;;10.10;9.80;;;11.50;99.90;;;;;;5102656;28;20235;-80
2022/09/12 03:17:30;;;;;;;10.20;9.90;;;11.50;99.90;;;;;;5101507;28;20233;-80
2022/09/12 03:20:10;;;;;;;10.10;9.80;;;11.40;99.90;;;;;;5102542;28;20229;-79
2022/09/12 03:22:50;;;;;;;10.40;10.10;;;11.40;99.90;;;;;;5102592;28;20229;-79
2022/09/12 03:25:23;;;;;;;10.20;9.90;;;11.40;99.90;;;;;;5101771;28;20237;-80
2022/09/12 03:27:59;;;;;;;10.30;10.00;;;11.40;99.90;;;;;;5103042;28;20307;-79
2022/09/12 03:30:28;;;;;;;10.33;10.03;;;11.40;99.90;;;;;;5101982;28;20272;-79
2022/09/12 03:32:56;;;;;;;10.37;10.07;;;11.30;99.90;;;;;;5102146;28;20318;-79
2022/09/12 03:35:25;;;;;;;10.17;9.87;;;11.30;99.90;;;;;;5101691;28;20237;-79
2022/09/12 03:37:53;;;;;;;10.20;9.90;;;11.30;99.90;;;;;;5102529;28;20233;-80
2022/09/12 03:40:21;;;;;;;10.13;9.83;;;11.30;99.90;;;;;;5102771;28;20339;-80
2022/09/12 03:42:49;;;;;;;10.30;10.00;;;11.30;99.90;;;;;;5102183;28;20213;-79
2022/09/12 03:45:16;;;;;;;10.37;10.07;;;11.30;99.90;;;;;;5102314;28;20681;-80
2022/09/12 03:47:49;;;;;;;10.57;10.27;;;11.30;99.90;;;;;;5102794;28;20229;-79
2022/09/12 03:50:17;;;;;;;10.40;10.10;;;11.20;99.90;;;;;;5103099;28;20324;-80
2022/09/12 03:52:47;;;;;;;10.30;10.00;;;11.20;99.90;;;;;;5097355;28;20225;-79
2022/09/12 03:55:16;;;;;;;10.27;9.97;;;11.20;99.90;;;;;;5092445;28;20319;-80
2022/09/12 03:57:44;;;;;;;10.20;9.90;;;11.20;99.90;;;;;;5100865;28;20244;-79
2022/09/12 04:00:12;;;;;;;10.17;9.87;;;11.10;99.90;;;;;;5089694;28;20297;-80
2022/09/12 04:02:43;;;;;;;10.30;10.00;;;11.10;99.90;;;;;;5097417;28;20227;-80
2022/09/12 04:05:12;;;;;;;10.23;9.93;;;11.00;99.90;;;;;;5112061;28;20239;-79
2022/09/12 04:07:43;;;;;;;10.30;10.00;;;11.00;99.90;;;;;;5109877;28;20328;-79
2022/09/12 04:10:15;;;;;;;10.13;9.83;;;11.00;99.90;;;;;;5109747;28;20229;-80
2022/09/12 04:12:43;;;;;;;10.33;10.03;;;11.10;99.90;;;;;;5112756;28;20220;-79
2022/09/12 04:15:12;;;;;;;10.10;9.80;;;11.10;99.90;;;;;;5105823;28;20298;-79
2022/09/12 04:17:39;;;;;;;10.20;9.90;;;11.10;99.90;;;;;;5116018;28;20289;-78
2022/09/12 04:20:08;;;;;;;10.30;10.00;;;11.10;99.90;;;;;;5113302;28;20236;-79
2022/09/12 04:22:36;;;;;;;10.50;10.20;;;11.10;99.90;;;;;;5114189;28;20222;-79
2022/09/12 04:25:04;;;;;;;10.50;10.20;;;11.20;99.90;;;;;;5115108;28;20293;-79
2022/09/12 04:27:34;;;;;;;10.27;9.97;;;11.20;99.90;;;;;;5116015;28;20253;-79
2022/09/12 04:30:02;;;;;;;10.07;9.77;;;11.20;99.90;;;;;;5115358;28;20229;-79
2022/09/12 04:32:31;;;;;;;10.50;10.20;;;11.20;99.90;;;;;;5111057;28;20252;-79
2022/09/12 04:34:58;;;;;;;10.73;10.43;;;11.20;99.90;;;;;;5110589;28;20229;-79
2022/09/12 04:37:26;;;;;;;10.77;10.47;;;11.30;99.90;;;;;;5115497;28;20301;-79
2022/09/12 04:39:56;;;;;;;10.67;10.37;;;11.20;99.90;;;;;;5114473;28;20228;-79
2022/09/12 04:42:26;;;;;;;10.67;10.37;;;11.20;99.90;;;;;;5117379;28;20221;-80
2022/09/12 04:44:55;;;;;;;11.00;10.60;;;11.20;99.90;;;;;;5117618;28;20237;-80
2022/09/12 04:47:22;;;;;;;11.00;10.60;;;11.20;99.90;;;;;;5117813;28;20316;-80
2022/09/12 04:49:50;;;;;;;11.27;10.87;;;11.20;99.90;;;;;;5117880;28;20225;-79
2022/09/12 04:52:17;;;;;;;11.13;10.73;;;11.10;99.90;;;;;;5117857;28;20217;-79
2022/09/12 04:54:47;;;;;;;10.87;10.53;;;11.10;99.90;;;;;;5117622;28;20235;-80
2022/09/12 04:57:15;;;;;;;11.07;10.67;;;11.10;99.90;;;;;;5117893;28;20241;-80
2022/09/12 04:59:43;;;;;;;10.83;10.53;;;11.10;99.90;;;;;;5118541;28;20233;-79
2022/09/12 05:02:14;;;;;;;10.70;10.40;;;11.10;99.90;;;;;;5118678;28;20228;-80
2022/09/12 05:04:41;;;;;;;11.07;10.77;;;11.10;99.90;;;;;;5117940;28;20232;-80
2022/09/12 05:07:09;;;;;;;10.80;10.50;;;11.10;99.90;;;;;;5115914;28;20239;-79
2022/09/12 05:09:36;;;;;;;11.30;10.90;;;11.20;99.90;;;;;;5108941;28;20281;-79
2022/09/12 05:12:04;;;;;;;10.87;10.57;;;11.20;99.90;;;;;;5117176;28;20220;-79
2022/09/12 05:14:33;;;;;;;10.77;10.47;;;11.20;99.90;;;;;;5117485;28;20237;-79
2022/09/12 05:17:00;;;;;;;10.87;10.57;;;11.20;99.90;;;;;;5106515;28;20749;-81
2022/09/12 05:19:32;;;;;;;10.80;10.50;;;11.20;99.90;;;;;;5103820;28;20219;-80
2022/09/12 05:22:03;;;;;;;10.53;10.23;;;11.20;99.90;;;;;;5103546;28;20241;-79
2022/09/12 05:24:31;;;;;;;10.97;10.60;;;11.20;99.90;;;;;;5105084;28;20225;-79
2022/09/12 05:27:02;;;;;;;10.90;10.60;;;11.20;99.90;;;;;;5103708;28;20311;-80
2022/09/12 05:29:30;;;;;;;10.67;10.37;;;11.20;99.90;;;;;;5103442;28;20312;-80
2022/09/12 05:31:59;;;;;;;11.20;10.80;;;11.20;99.90;;;;;;5103086;28;20316;-80
2022/09/12 05:34:30;;;;;;;10.90;10.60;;;11.20;99.90;;;;;;5102290;28;21074;-80
2022/09/12 05:36:59;;;;;;;11.17;10.77;;;11.20;99.90;;;;;;5091526;28;20245;-79
2022/09/12 05:39:27;;;;;;;10.80;10.50;;;11.20;99.90;;;;;;5090171;28;20282;-80
2022/09/12 05:41:55;;;;;;;10.80;10.50;;;11.20;99.90;;;;;;5085549;28;20282;-80
2022/09/12 05:44:24;;;;;;;10.90;10.60;;;11.20;99.90;;;;;;5082409;28;20234;-79
2022/09/12 05:46:52;;;;;;;11.27;10.87;;;11.20;99.90;;;;;;5083014;28;20230;-79
2022/09/12 05:49:20;;;;;;;11.07;10.70;;;11.20;99.90;;;;;;5082679;28;20234;-81
2022/09/12 05:51:47;;;;;;;10.70;10.40;;;11.30;99.90;;;;;;5082495;28;20230;-81
2022/09/12 05:54:20;;;;;;;10.87;10.57;;;11.30;99.90;;;;;;5081382;28;20540;-79
2022/09/12 05:56:48;;;;;;;10.70;10.40;;;11.40;99.90;;;;;;5082137;28;20733;-80
2022/09/12 05:59:18;;;;;;;10.60;10.30;;;11.40;99.90;;;;;;5082422;28;20230;-79
2022/09/12 06:01:46;;;;;;;10.70;10.40;;;11.40;99.90;;;;;;5082263;28;20312;-79
2022/09/12 06:04:14;;;;;;;10.80;10.50;;;11.50;99.90;;;;;;5081650;28;20240;-80
2022/09/12 06:06:44;;;;;;;10.60;10.30;;;11.50;99.90;;;;;;5081719;28;20276;-80
2022/09/12 06:09:12;;;;;;;10.80;10.50;;;11.50;99.90;;;;;;5082598;28;20249;-80
2022/09/12 06:11:42;;;;;;;10.50;10.20;;;11.50;99.90;;;;;;5082371;28;20223;-79
2022/09/12 06:14:13;;;;;;;10.57;10.27;;;11.50;99.90;;;;;;5081852;28;20230;-80
2022/09/12 06:16:41;;;;;;;10.80;10.50;;;11.50;99.90;;;;;;5081305;28;20256;-80
2022/09/12 06:19:16;;;;;;;11.57;11.18;;;11.60;99.90;;;;;;5081557;28;20413;-80
2022/09/12 06:21:45;;;;;;;11.60;11.20;;;11.60;99.90;;;;;;5082959;28;20210;-82
2022/09/12 06:24:12;;;;;;;11.20;10.80;;;11.70;99.90;;;;;;5083299;28;20308;-81
2022/09/12 06:26:42;;;;;;;10.97;10.57;;;11.80;99.90;;;;;;5082364;28;20242;-81
2022/09/12 06:29:12;;;;;;;11.07;10.67;;;11.80;99.90;;;;;;5082604;28;20280;-81
2022/09/12 06:31:41;;;;;;;11.07;10.67;;;11.90;99.90;;;;;;5086126;28;20272;-81
2022/09/12 06:34:16;;;;;;;11.07;10.67;;;11.90;99.90;;;;;;5085055;28;20229;-81
2022/09/12 06:36:46;;;;;;;10.63;10.33;;;11.90;99.90;;;;;;5084698;28;20237;-81
2022/09/12 06:39:16;;;;;;;10.70;10.40;;;12.00;99.90;;;;;;5091498;28;20329;-81
2022/09/12 06:41:55;;;;;;;10.73;10.43;;;12.00;99.90;;;;;;5092577;28;20226;-82
2022/09/12 06:44:23;;;;;;;11.00;10.60;;;12.00;99.90;;;;;;5088006;28;20232;-79
2022/09/12 06:46:55;;;;;;;10.30;10.00;;;12.00;99.90;;;;;;5084155;28;20274;-80
2022/09/12 06:49:23;;;;;;;10.73;10.43;;;12.00;99.90;;;;;;5092939;28;20232;-82
2022/09/12 06:51:52;;;;;;;10.30;10.00;;;12.10;99.90;;;;;;5102084;28;20234;-82
2022/09/12 06:54:20;;;;;;;10.27;9.97;;;12.10;99.90;;;;;;5101212;28;20256;-80
2022/09/12 06:56:52;;;;;;;10.30;10.00;;;12.10;99.90;;;;;;5099716;28;20314;-80
2022/09/12 06:59:19;;;;;;;10.70;10.40;;;12.20;99.90;;;;;;5100723;28;20235;-81
2022/09/12 07:01:51;;;;;;;10.00;9.70;;;12.30;99.90;;;;;;5103265;28;20578;-83
2022/09/12 07:04:18;;;;;;;9.90;9.60;;;12.40;99.90;;;;;;5102575;28;20233;-81
2022/09/12 07:06:50;;;;;;;10.10;9.80;;;12.50;99.90;;;;;;5102647;28;20301;-82
2022/09/12 07:09:19;;;;;;;10.00;9.70;;;12.60;99.90;;;;;;5100387;28;20317;-81
2022/09/12 07:11:51;;;;;;;10.10;9.80;;;12.60;99.90;;;;;;5089059;28;20232;-80
2022/09/12 07:14:18;;;;;;;10.20;9.90;;;12.70;99.90;;;;;;5102078;28;20229;-80
2022/09/12 07:16:46;;;;;;;10.10;9.80;;;12.80;99.90;;;;;;5092360;28;20286;-80
2022/09/12 07:19:14;;;;;;;10.50;10.20;;;12.90;99.90;;;;;;5084013;28;20304;-79
2022/09/12 07:21:43;;;;;;;10.40;10.10;;;12.90;99.90;;;;;;5082632;28;20292;-81
2022/09/12 07:24:15;;;;;;;10.50;10.20;;;13.00;99.90;;;;;;5082867;28;20250;-81
2022/09/12 07:26:44;;;;;;;10.70;10.40;;;13.00;99.90;;;;;;5082270;28;20263;-80
2022/09/12 07:29:17;;;;;;;10.80;10.50;;;13.10;99.90;;;;;;5083120;28;20222;-79
2022/09/12 07:31:45;;;;;;;10.60;10.30;;;13.30;99.90;;;;;;5082232;28;20245;-81
2022/09/12 07:34:13;;;;;;;10.40;10.10;;;13.40;99.90;;;;;;5082477;28;20289;-80
2022/09/12 07:36:46;;;;;;;10.20;9.90;;;13.40;99.90;;;;;;5081563;28;20234;-82
2022/09/12 07:39:13;;;;;;;10.17;9.87;;;13.50;99.90;;;;;;5083079;28;20245;-81
2022/09/12 07:41:41;;;;;;;10.20;9.90;;;13.70;99.90;;;;;;5082610;28;20301;-81
2022/09/12 07:44:09;;;;;;;10.40;10.10;;;13.90;99.90;;;;;;5082714;28;20226;-81
2022/09/12 07:46:40;;;;;;;10.37;10.07;;;14.10;99.90;;;;;;5087799;28;20269;-80
2022/09/12 07:49:12;;;;;;;10.50;10.20;;;14.40;99.90;;;;;;5093139;28;20286;-81
2022/09/12 07:51:40;;;;;;;10.30;10.00;;;14.60;99.90;;;;;;5096210;28;20253;-80
2022/09/12 07:54:09;;;;;;;10.23;9.93;;;14.80;99.90;;;;;;5106875;28;20249;-80
2022/09/12 07:56:39;;;;;;;10.30;10.00;;;14.90;99.90;;;;;;5118146;28;20298;-81
2022/09/12 07:59:10;;;;;;;10.48;10.18;;;15.10;99.90;;;;;;5107041;27;20263;-81
2022/09/12 08:01:40;;;;;;;10.40;10.10;;;15.20;99.90;;;;;;5093616;28;20222;-81
2022/09/12 08:04:08;;;;;;;10.50;10.20;;;15.20;99.90;;;;;;5101085;28;20229;-82
2022/09/12 08:06:36;;;;;;;10.50;10.20;;;15.30;99.90;;;;;;5100739;28;20238;-83
2022/09/12 08:09:06;;;;;;;10.27;9.97;;;15.20;99.90;;;;;;5084475;28;20222;-79
2022/09/12 08:11:34;;;;;;;10.70;10.40;;;15.20;99.90;;;;;;5103745;28;20221;-81
2022/09/12 08:14:04;;;;;;;10.43;10.13;;;15.30;99.90;;;;;;5104437;28;20257;-80
2022/09/12 08:16:33;;;;;;;10.48;10.18;;;15.30;99.90;;;;;;5104693;28;20225;-80
2022/09/12 08:19:05;;;;;;;10.40;10.10;;;15.40;99.90;;;;;;5105587;28;20295;-84
2022/09/12 08:21:34;;;;;;;10.35;10.05;;;15.60;99.90;;;;;;5095327;28;20312;-81
2022/09/12 08:24:04;;;;;;;10.35;10.05;;;15.70;99.90;;;;;;5103911;28;20255;-81
2022/09/12 08:26:34;;;;;;;10.10;9.80;;;15.90;99.90;;;;;;5102020;28;20267;-81
2022/09/12 08:29:02;;;;;;;10.20;9.90;;;16.10;99.90;;;;;;5103228;28;20324;-81
2022/09/12 08:31:35;;;;;;;9.88;9.57;;;16.20;99.90;;;;;;5102420;28;20229;-82
2022/09/12 08:34:09;;;;;;;9.98;9.68;;;16.40;99.90;;;;;;5102882;28;20323;-81
2022/09/12 08:36:38;;;;;;;10.07;9.77;;;16.60;99.90;;;;;;5102450;28;20236;-82
2022/09/12 08:39:09;;;;;;;9.82;9.52;;;16.70;99.90;;;;;;5104202;28;20239;-82
2022/09/12 08:41:40;;;;;;;10.05;9.75;;;16.90;99.90;;;;;;5104419;28;20275;-81
2022/09/12 08:44:36;;;;;;;10.10;9.80;;;17.00;99.90;;;;;;5106361;28;20292;-82
2022/09/12 08:47:23;;;;;;;9.95;9.65;;;17.30;99.90;;;;;;5104020;28;20235;-81
2022/09/12 08:50:02;;;;;;;10.18;9.88;;;17.40;99.90;;;;;;5103516;28;20233;-81
2022/09/12 08:52:38;;;;;;;10.57;10.27;;;17.90;99.90;;;;;;5103662;28;20237;-81
2022/09/12 08:55:25;;;;;;;9.98;9.68;;;18.20;99.90;;;;;;5103564;28;20229;-81
2022/09/12 08:57:54;;;;;;;10.20;9.90;;;18.50;99.90;;;;;;5103986;28;20237;-81
2022/09/12 09:00:24;;;;;;;9.70;9.40;;;18.50;99.90;;;;;;5109095;28;20237;-81
2022/09/12 09:03:31;;;;;;;9.90;9.60;;;18.60;99.90;;;;;;5108731;28;20221;-80
2022/09/12 09:06:08;;;;;;;10.00;9.70;;;18.70;99.90;;;;;;5106505;28;20237;-80
2022/09/12 09:08:55;;;;;;;9.73;9.43;;;19.00;99.90;;;;;;5105565;28;20291;-81
2022/09/12 09:11:44;;;;;;;9.98;9.68;;;19.40;99.90;;;;;;5104421;28;20260;-81
2022/09/12 09:14:55;;;;;;;9.93;9.63;;;19.80;99.90;;;;;;5103749;28;20230;-80
2022/09/12 09:17:34;;;;;;;10.20;9.90;;;19.60;99.90;;;;;;5097933;28;20241;-80
2022/09/12 09:20:13;;;;;;;10.00;9.70;;;19.80;99.90;;;;;;5104407;28;20235;-81
2022/09/12 09:22:49;;;;;;;10.20;9.90;;;19.90;99.90;;;;;;5103950;28;20233;-81
2022/09/12 09:25:29;;;;;;;10.30;10.00;;;20.30;99.90;;;;;;5102663;28;20239;-82
2022/09/12 09:28:02;;;;;;;10.55;10.25;;;20.60;99.90;;;;;;5104720;28;20252;-81
2022/09/12 09:30:32;;;;;;;10.30;10.00;;;21.00;99.90;;;;;;5106125;28;20233;-80
2022/09/12 09:33:05;;;;;;;10.43;10.13;;;21.10;99.90;;;;;;5105757;28;20229;-80
2022/09/12 09:35:44;;;;;;;10.63;10.32;;;21.40;99.90;;;;;;5104450;28;20344;-80
2022/09/12 09:38:38;;;;;;;10.57;10.27;;;21.60;99.90;;;;;;5106402;28;20312;-81
2022/09/12 09:41:36;;;;;;;10.65;10.35;;;21.60;99.90;;;;;;5106583;28;20253;-80
2022/09/12 09:44:04;;;;;;;10.55;10.25;;;22.00;99.90;;;;;;5097868;28;20332;-80
2022/09/12 09:46:33;;;;;;;10.52;10.23;;;22.10;99.90;;;;;;5106051;28;20267;-79
2022/09/12 09:49:03;;;;;;;10.63;10.32;;;22.30;99.90;;;;;;5106945;28;20721;-80
2022/09/12 09:51:38;;;;;;;10.93;10.63;;;22.40;99.90;;;;;;5106641;28;20229;-80
2022/09/12 09:54:19;;;;;;;11.00;10.70;;;22.70;99.90;;;;;;5110256;28;20241;-79
2022/09/12 09:56:46;;;;;;;11.30;10.90;;;22.90;99.90;;;;;;5121357;28;20239;-79
2022/09/12 09:59:19;;;;;;;10.93;10.63;;;22.80;99.90;;;;;;5120245;27;20269;-78
2022/09/12 10:01:49;;;;;;;11.00;10.70;;;22.80;99.90;;;;;;5120674;27;20217;-84
2022/09/12 10:04:25;;;;;;;10.88;10.57;;;23.10;99.90;;;;;;5113246;27;20228;-81
2022/09/12 10:06:54;;;;;;;10.80;10.50;;;23.40;99.90;;;;;;5123131;27;20256;-82
2022/09/12 10:09:29;;;;;;;10.98;10.68;;;23.60;99.90;;;;;;5122950;27;20209;-83
2022/09/12 10:12:02;;;;;;;10.93;10.63;;;23.50;99.90;;;;;;5122235;27;20272;-81
2022/09/12 10:14:41;;;;;;;10.93;10.63;;;23.60;99.90;;;;;;5122137;27;20233;-82
2022/09/12 10:17:28;;;;;;;11.05;10.75;;;23.80;99.90;;;;;;5122274;27;20237;-85
2022/09/12 10:19:57;;;;;;;10.95;10.65;;;24.00;99.90;;;;;;5122250;27;20221;-84
2022/09/12 10:22:29;;;;;;;11.20;10.90;;;24.20;99.90;;;;;;5121701;27;20259;-83
2022/09/12 10:25:05;;;;;;;11.23;10.93;;;24.20;99.90;;;;;;5120500;27;20237;-81
2022/09/12 10:27:34;;;;;;;11.02;10.73;;;24.30;99.90;;;;;;5120618;27;20216;-81
2022/09/12 10:30:07;;;;;;;11.15;10.85;;;24.60;99.90;;;;;;5113914;28;20233;-83
2022/09/12 10:32:42;;;;;;;11.00;10.70;;;24.80;99.90;;;;;;5104235;28;20261;-81
2022/09/12 10:35:20;;;;;;;11.20;10.90;;;25.10;99.90;;;;;;5105737;28;20324;-82
2022/09/12 10:38:01;;;;;;;11.68;11.27;;;25.50;99.90;;;;;;5111240;28;20245;-79
2022/09/12 10:40:42;;;;;;;11.05;10.75;;;25.60;99.90;;;;;;5096107;28;20284;-81
2022/09/12 10:43:18;;;;;;;11.50;11.10;;;25.60;99.90;;;;;;5086668;28;20234;-80
2022/09/12 10:45:49;;;;;;;11.52;11.13;;;25.40;99.90;;;;;;5083391;28;20296;-82
2022/09/12 10:48:30;;;;;;;11.65;11.25;;;25.10;99.90;;;;;;5086555;28;20281;-82
2022/09/12 10:51:04;;;;;;;11.65;11.25;;;25.30;99.90;;;;;;5090929;28;20265;-82
2022/09/12 10:53:40;;;;;;;11.38;11.00;;;25.90;99.90;;;;;;5106267;28;20248;-82
2022/09/12 10:56:19;;;;;;;11.20;10.90;;;26.00;99.90;;;;;;5097372;28;20240;-81
2022/09/12 10:59:20;;;;;;;10.90;10.60;;;25.90;99.90;;;;;;5094592;28;20246;-83
2022/09/12 11:02:04;;;;;;;11.00;10.70;;;25.60;99.90;;;;;;5084305;28;20245;-83
2022/09/12 11:04:49;;;;;;;10.68;10.38;;;25.20;99.90;;;;;;5083621;28;20238;-81
2022/09/12 11:07:44;;;;;;;10.90;10.60;;;25.00;99.90;;;;;;5083996;28;20265;-82
2022/09/12 11:10:31;;;;;;;10.98;10.68;;;24.40;99.90;;;;;;5100141;28;20221;-81
2022/09/12 11:13:19;;;;;;;11.00;10.70;;;24.30;99.90;;;;;;5098021;28;20232;-82
2022/09/12 13:56:19;;;;;;;11.57;11.18;;;25.90;99.90;;;;;;4827692;29;20236;-84
2022/09/12 14:06:15;;;;;;;11.70;11.30;;;25.70;99.90;;;;;;5032659;28;20284;-85
2022/09/12 14:08:44;;;;;;;11.70;11.30;;;25.70;99.90;;;;;;5022551;28;20493;-86
2022/09/12 14:20:18;;;;;;;11.52;11.18;;;26.20;99.90;;;;;;4986498;28;20230;-86
2022/09/12 17:18:25;;;;;;;10.15;9.85;;;25.00;99.90;;;;;;5085784;22;20294;-82
2022/09/12 17:20:53;;;;;;;10.00;9.70;;;24.70;99.90;;;;;;5087167;28;20285;-82
2022/09/12 17:23:20;;;;;;;9.75;9.45;;;24.40;99.90;;;;;;5086224;28;20230;-82
2022/09/12 17:25:50;;;;;;;10.00;9.70;;;24.20;99.90;;;;;;5085541;28;20293;-82
2022/09/12 17:28:19;;;;;;;9.60;9.30;;;24.00;99.90;;;;;;5087066;28;20257;-82
2022/09/12 17:30:48;;;;;;;9.75;9.45;;;23.80;99.90;;;;;;5087407;28;20234;-82
2022/09/12 17:33:18;;;;;;;9.90;9.60;;;23.60;99.90;;;;;;5085903;28;20363;-82
2022/09/12 17:35:56;;;;;;;10.30;10.00;;;23.30;99.90;;;;;;5086086;28;20289;-82
2022/09/12 17:38:26;;;;;;;10.10;9.80;;;23.00;99.90;;;;;;5086918;28;20759;-81
2022/09/12 17:40:55;;;;;;;10.10;9.80;;;22.80;99.90;;;;;;5087827;28;20222;-81
2022/09/12 17:43:23;;;;;;;9.90;9.60;;;22.60;99.90;;;;;;5087501;28;20226;-81
2022/09/12 17:45:56;;;;;;;9.90;9.60;;;22.40;99.90;;;;;;5085760;28;20238;-81
2022/09/12 17:48:24;;;;;;;9.70;9.40;;;22.20;99.90;;;;;;5086894;28;20230;-81
2022/09/12 17:50:55;;;;;;;10.05;9.75;;;22.00;99.90;;;;;;5086168;28;20356;-81
2022/09/12 17:53:23;;;;;;;9.82;9.52;;;21.70;99.90;;;;;;5086882;28;20230;-79
2022/09/12 17:55:51;;;;;;;10.02;9.73;;;21.50;99.90;;;;;;5085772;28;20252;-81
2022/09/12 17:58:20;;;;;;;9.88;9.57;;;21.40;99.90;;;;;;5085467;28;20242;-81
2022/09/12 18:03:37;;;;;;;9.82;9.52;;;21.20;99.90;;;;;;5087045;28;20226;-81
2022/09/12 18:06:07;;;;;;;9.30;9.00;;;21.10;99.90;;;;;;5086060;28;20244;-82
2022/09/12 18:08:36;;;;;;;9.57;9.27;;;21.00;99.90;;;;;;5086032;28;20285;-80
2022/09/12 18:11:08;;;;;;;9.65;9.35;;;21.00;99.90;;;;;;5091923;28;20222;-81
2022/09/12 18:13:36;;;;;;;9.57;9.27;;;20.90;99.90;;;;;;5099476;28;20277;-82
2022/09/12 18:16:10;;;;;;;9.77;9.48;;;20.80;99.90;;;;;;5094151;28;20241;-82
2022/09/12 18:21:21;;;;;;;9.73;9.43;;;20.60;99.90;;;;;;5091065;28;20226;-81
2022/09/12 18:23:51;;;;;;;9.93;9.63;;;20.50;99.90;;;;;;5093261;28;20234;-81
2022/09/12 18:26:19;;;;;;;9.60;9.30;;;20.40;99.90;;;;;;5089476;28;20264;-81
2022/09/12 18:28:50;;;;;;;9.50;9.20;;;20.40;99.90;;;;;;5087318;28;20355;-82
2022/09/12 18:31:22;;;;;;;9.40;9.10;;;20.30;99.90;;;;;;5086892;28;20226;-82
2022/09/12 18:33:49;;;;;;;9.38;9.07;;;20.10;99.90;;;;;;5086732;28;20232;-82
2022/09/12 18:36:22;;;;;;;9.55;9.25;;;20.10;99.90;;;;;;5085653;28;20245;-81
2022/09/12 18:38:50;;;;;;;9.70;9.40;;;20.00;99.90;;;;;;5087500;28;20238;-83
2022/09/12 18:41:20;;;;;;;9.63;9.32;;;19.90;99.90;;;;;;5086822;28;20309;-80
2022/09/12 18:43:49;;;;;;;10.00;9.70;;;19.90;99.90;;;;;;5087886;28;20260;-81
2022/09/12 18:46:18;;;;;;;9.90;9.60;;;19.80;99.90;;;;;;5095427;28;20274;-81
2022/09/12 18:48:47;;;;;;;10.00;9.70;;;19.80;99.90;;;;;;5098559;28;20286;-81
2022/09/12 18:51:16;;;;;;;9.65;9.35;;;19.70;99.90;;;;;;5098434;28;20218;-82
2022/09/12 18:53:55;;;;;;;9.65;9.35;;;19.60;99.90;;;;;;5098485;28;20261;-82
2022/09/12 18:56:24;;;;;;;9.52;9.23;;;19.60;99.90;;;;;;5098129;28;20225;-80